< Typhoon 196417 1964 Season Typhoon 196419 >
Typhoon 196418 (SALLY)
General InformationTrack Information on Google Maps || Disaster Info.ResourceGoogle EarthGE AnimationAtom FeedGeoJSON
Detalied Best Track (Time Zone = UTC)
Year Month Day Hour Lat. Long. Pressure (hPa) Wind (kt) Class Image Chart
1964 9 3 00 9.2 157.9 1007 0 2 -- Chart
1964 9 3 06 9.2 157.0 1006 0 2 -- Chart
1964 9 3 12 9.2 156.0 1006 0 2 -- Chart
1964 9 3 18 9.2 155.0 1004 0 2 -- Chart
1964 9 4 00 9.3 153.5 1002 0 2 -- Chart
1964 9 4 06 10.0 151.0 994 0 9 -- Chart
1964 9 4 12 10.6 150.0 994 0 9 -- Chart
1964 9 4 18 11.2 149.0 994 0 9 -- Chart
1964 9 5 00 12.0 148.0 994 0 9 -- Chart
1964 9 5 06 12.6 146.5 994 0 9 -- Chart
1964 9 5 12 13.3 144.4 994 0 9 -- Chart
1964 9 5 18 14.0 142.4 994 0 9 -- Chart
1964 9 6 00 14.5 140.2 965 0 9 -- Chart
1964 9 6 06 14.8 138.5 960 0 9 -- Chart
1964 9 6 12 15.0 136.9 960 0 9 -- Chart
1964 9 6 18 15.4 135.0 950 0 9 -- Chart
1964 9 7 00 16.1 133.1 900 0 9 -- Chart
1964 9 7 06 16.7 131.2 900 0 9 -- Chart
1964 9 7 12 17.2 129.7 900 0 9 -- Chart
1964 9 7 18 17.7 128.0 900 0 9 -- Chart
1964 9 8 00 18.0 126.6 895 0 9 -- Chart
1964 9 8 06 18.1 125.0 895 0 9 -- Chart
1964 9 8 12 18.5 123.7 895 0 9 -- Chart
1964 9 8 18 18.7 122.6 895 0 9 -- Chart
1964 9 9 00 19.0 121.5 895 0 9 -- Chart
1964 9 9 06 19.4 120.3 950 0 9 -- Chart
1964 9 9 12 19.9 119.0 955 0 9 -- Chart
1964 9 9 18 20.3 117.7 960 0 9 -- Chart
1964 9 10 00 20.8 116.7 965 0 9 -- Chart
1964 9 10 06 21.8 115.8 970 0 9 -- Chart
1964 9 10 12 22.5 114.9 982 0 9 -- Chart
1964 9 10 18 23.3 113.1 994 0 9 -- Chart
1964 9 11 00 24.0 111.0 1000 0 2 -- Chart
1964 9 11 06 24.5 109.2 1000 0 2 -- Chart
1964 9 11 12 24.0 107.5 1000 0 2 -- Chart
Japan Meteorological Agency Best Track Data | Correction Date : 1989-06-01
< Typhoon 196417 1964 Season Typhoon 196419 >

Help